Terminal Aerodrome Forecast
Issued by NWS

Home | Current Version | Previous Version | Text Only | Print | Product List | Glossary On
Versions: 1 2 3 4 5 6 7 8 9 10 11 12 13 14 15
023
FTUS45 KRIW 141120
TAFJAC
TAF
KJAC 141120Z 1412/1512 20011G18KT 3SM -SN OVC020
     FM141600 20014G22KT 1 1/2SM -SN SCT008 OVC015
     FM142300 19012G18KT 3SM -SN SCT012 OVC020
     FM150800 19011KT 1 1/2SM -SN OVC012
      AMD LTD TO CLD VIS AND WIND=

USA.gov is the U.S. government's official web portal to all federal, state and local government web resources and services.